sensor_id;sensor_type;location;lat;lon;timestamp;pressure;altitude;pressure_sealevel;temperature;humidity
39729;BME280;25402;42.004;23.088;2022-12-07T00:01:43;97508.22;;;5.97;48.53
39729;BME280;25402;42.004;23.088;2022-12-07T00:04:12;97509.25;;;5.86;48.16
39729;BME280;25402;42.004;23.088;2022-12-07T00:06:40;97506.38;;;5.97;48.39
39729;BME280;25402;42.004;23.088;2022-12-07T00:09:11;97516.41;;;5.95;48.06
39729;BME280;25402;42.004;23.088;2022-12-07T00:11:40;97496.38;;;5.89;48.13
39729;BME280;25402;42.004;23.088;2022-12-07T00:14:10;97503.19;;;6.02;47.95
39729;BME280;25402;42.004;23.088;2022-12-07T00:16:40;97464.72;;;5.75;47.95
39729;BME280;25402;42.004;23.088;2022-12-07T00:19:09;97445.72;;;5.69;47.80
39729;BME280;25402;42.004;23.088;2022-12-07T00:21:37;97403.31;;;5.46;47.52
39729;BME280;25402;42.004;23.088;2022-12-07T00:24:05;97411.56;;;5.53;47.65
39729;BME280;25402;42.004;23.088;2022-12-07T00:26:33;97360.22;;;5.22;47.73
39729;BME280;25402;42.004;23.088;2022-12-07T00:29:04;97406.19;;;5.53;47.76
39729;BME280;25402;42.004;23.088;2022-12-07T00:31:34;97439.19;;;5.71;47.73
39729;BME280;25402;42.004;23.088;2022-12-07T00:34:04;97404.84;;;5.49;47.61
39729;BME280;25402;42.004;23.088;2022-12-07T00:36:31;97414.78;;;5.57;47.39
39729;BME280;25402;42.004;23.088;2022-12-07T00:38:59;97370.16;;;5.30;47.34
39729;BME280;25402;42.004;23.088;2022-12-07T00:41:27;97491.97;;;6.06;47.42
39729;BME280;25402;42.004;23.088;2022-12-07T00:43:54;97457.91;;;5.81;47.45
39729;BME280;25402;42.004;23.088;2022-12-07T00:46:23;97495.03;;;6.11;47.32
39729;BME280;25402;42.004;23.088;2022-12-07T00:48:51;97481.72;;;6.02;47.25
39729;BME280;25402;42.004;23.088;2022-12-07T00:51:20;97415.78;;;5.55;47.25
39729;BME280;25402;42.004;23.088;2022-12-07T00:53:48;97493.81;;;6.06;46.84
39729;BME280;25402;42.004;23.088;2022-12-07T00:56:17;97501.72;;;6.07;46.66
39729;BME280;25402;42.004;23.088;2022-12-07T00:58:49;97390.38;;;5.42;46.92
39729;BME280;25402;42.004;23.088;2022-12-07T01:01:18;97353.50;;;5.18;46.90
39729;BME280;25402;42.004;23.088;2022-12-07T01:03:47;97393.50;;;5.37;46.83
39729;BME280;25402;42.004;23.088;2022-12-07T01:06:16;97443.88;;;5.43;47.21
39729;BME280;25402;42.004;23.088;2022-12-07T01:08:44;97414.59;;;4.71;48.35
39729;BME280;25402;42.004;23.088;2022-12-07T01:11:13;97364.31;;;4.10;49.80
39729;BME280;25402;42.004;23.088;2022-12-07T01:13:41;97373.00;;;4.22;49.80
39729;BME280;25402;42.004;23.088;2022-12-07T01:16:13;97306.91;;;3.77;50.26
39729;BME280;25402;42.004;23.088;2022-12-07T01:18:42;97319.16;;;3.97;49.81
39729;BME280;25402;42.004;23.088;2022-12-07T01:21:13;97329.22;;;4.13;49.62
39729;BME280;25402;42.004;23.088;2022-12-07T01:23:41;97387.25;;;4.67;49.52
39729;BME280;25402;42.004;23.088;2022-12-07T01:26:11;97311.94;;;4.25;49.16
39729;BME280;25402;42.004;23.088;2022-12-07T01:28:40;97361.84;;;4.62;49.22
39729;BME280;25402;42.004;23.088;2022-12-07T01:31:09;97368.53;;;4.75;49.25
39729;BME280;25402;42.004;23.088;2022-12-07T01:33:38;97398.25;;;5.00;49.13
39729;BME280;25402;42.004;23.088;2022-12-07T01:36:08;97266.41;;;4.25;48.96
39729;BME280;25402;42.004;23.088;2022-12-07T01:38:41;97349.56;;;4.69;48.92
39729;BME280;25402;42.004;23.088;2022-12-07T01:41:08;97303.69;;;4.36;48.94
39729;BME280;25402;42.004;23.088;2022-12-07T01:43:36;97411.56;;;4.92;49.19
39729;BME280;25402;42.004;23.088;2022-12-07T01:46:04;97403.22;;;4.95;49.05
39729;BME280;25402;42.004;23.088;2022-12-07T01:48:34;97283.81;;;4.39;49.06
39729;BME280;25402;42.004;23.088;2022-12-07T01:51:07;97359.81;;;4.91;48.74
39729;BME280;25402;42.004;23.088;2022-12-07T01:53:38;97392.88;;;5.17;48.68
39729;BME280;25402;42.004;23.088;2022-12-07T01:56:11;97266.78;;;4.48;48.78
39729;BME280;25402;42.004;23.088;2022-12-07T01:58:43;97391.78;;;5.28;48.62
39729;BME280;25402;42.004;23.088;2022-12-07T02:01:11;97338.84;;;4.87;48.82
39729;BME280;25402;42.004;23.088;2022-12-07T02:03:40;97267.63;;;4.48;48.83
39729;BME280;25402;42.004;23.088;2022-12-07T02:06:11;97254.94;;;4.50;48.74
39729;BME280;25402;42.004;23.088;2022-12-07T02:08:39;97341.16;;;5.07;48.44
39729;BME280;25402;42.004;23.088;2022-12-07T02:11:09;97249.78;;;4.57;48.45
39729;BME280;25402;42.004;23.088;2022-12-07T02:13:39;97319.50;;;5.01;48.35
39729;BME280;25402;42.004;23.088;2022-12-07T02:16:16;97345.47;;;5.18;48.30
39729;BME280;25402;42.004;23.088;2022-12-07T02:19:01;97355.19;;;5.19;48.26
39729;BME280;25402;42.004;23.088;2022-12-07T02:21:37;97334.72;;;5.18;48.08
39729;BME280;25402;42.004;23.088;2022-12-07T02:24:33;97271.84;;;4.87;47.77
39729;BME280;25402;42.004;23.088;2022-12-07T02:27:33;97323.72;;;5.29;47.71
39729;BME280;25402;42.004;23.088;2022-12-07T02:30:07;97276.19;;;4.88;47.86
39729;BME280;25402;42.004;23.088;2022-12-07T02:32:42;97328.03;;;5.22;47.56
39729;BME280;25402;42.004;23.088;2022-12-07T02:35:15;97316.75;;;4.93;47.82
39729;BME280;25402;42.004;23.088;2022-12-07T02:37:53;97271.56;;;4.36;48.32
39729;BME280;25402;42.004;23.088;2022-12-07T02:40:25;97239.81;;;4.24;48.04
39729;BME280;25402;42.004;23.088;2022-12-07T02:42:59;97243.94;;;4.18;48.18
39729;BME280;25402;42.004;23.088;2022-12-07T02:45:31;97250.53;;;4.24;48.42
39729;BME280;25402;42.004;23.088;2022-12-07T02:48:02;97250.03;;;4.28;48.04
39729;BME280;25402;42.004;23.088;2022-12-07T02:50:31;97260.00;;;4.36;48.21
39729;BME280;25402;42.004;23.088;2022-12-07T02:52:58;97276.38;;;4.33;48.14
39729;BME280;25402;42.004;23.088;2022-12-07T02:55:28;97346.19;;;4.84;48.02
39729;BME280;25402;42.004;23.088;2022-12-07T02:58:15;97331.25;;;4.82;47.87
39729;BME280;25402;42.004;23.088;2022-12-07T03:00:54;97271.47;;;4.46;47.69
39729;BME280;25402;42.004;23.088;2022-12-07T03:03:24;97284.94;;;4.54;47.47
39729;BME280;25402;42.004;23.088;2022-12-07T03:06:06;97284.94;;;4.54;47.36
39729;BME280;25402;42.004;23.088;2022-12-07T03:08:47;97217.41;;;4.07;47.53
39729;BME280;25402;42.004;23.088;2022-12-07T03:11:23;97263.91;;;4.24;47.58
39729;BME280;25402;42.004;23.088;2022-12-07T03:13:59;97196.56;;;3.65;48.15
39729;BME280;25402;42.004;23.088;2022-12-07T03:16:35;97258.00;;;4.02;48.08
39729;BME280;25402;42.004;23.088;2022-12-07T03:19:08;97251.50;;;4.05;47.88
39729;BME280;25402;42.004;23.088;2022-12-07T03:21:40;97368.03;;;4.72;47.90
39729;BME280;25402;42.004;23.088;2022-12-07T03:24:24;97378.56;;;4.73;48.05
39729;BME280;25402;42.004;23.088;2022-12-07T03:26:56;97221.44;;;3.75;48.19
39729;BME280;25402;42.004;23.088;2022-12-07T03:29:29;97363.53;;;4.63;48.25
39729;BME280;25402;42.004;23.088;2022-12-07T03:32:03;97317.38;;;4.33;48.12
39729;BME280;25402;42.004;23.088;2022-12-07T03:34:44;97266.03;;;4.02;47.94
39729;BME280;25402;42.004;23.088;2022-12-07T03:37:43;97354.75;;;4.53;48.31
39729;BME280;25402;42.004;23.088;2022-12-07T03:40:17;97245.44;;;3.85;48.25
39729;BME280;25402;42.004;23.088;2022-12-07T03:42:54;97337.56;;;4.28;48.26
39729;BME280;25402;42.004;23.088;2022-12-07T03:45:33;97259.91;;;3.65;48.83
39729;BME280;25402;42.004;23.088;2022-12-07T03:48:08;97243.81;;;3.47;49.21
39729;BME280;25402;42.004;23.088;2022-12-07T03:50:45;97253.78;;;3.55;50.21
39729;BME280;25402;42.004;23.088;2022-12-07T03:53:19;97208.31;;;3.18;49.96
39729;BME280;25402;42.004;23.088;2022-12-07T03:55:49;97415.81;;;4.49;49.84
39729;BME280;25402;42.004;23.088;2022-12-07T03:58:20;97281.72;;;3.70;50.72
39729;BME280;25402;42.004;23.088;2022-12-07T04:00:51;97261.13;;;3.98;52.33
39729;BME280;25402;42.004;23.088;2022-12-07T04:03:20;97246.69;;;4.08;51.35
39729;BME280;25402;42.004;23.088;2022-12-07T04:05:48;97249.28;;;4.18;50.46
39729;BME280;25402;42.004;23.088;2022-12-07T04:08:15;97370.75;;;4.98;50.09
39729;BME280;25402;42.004;23.088;2022-12-07T04:10:42;97333.38;;;4.96;50.16
39729;BME280;25402;42.004;23.088;2022-12-07T04:13:10;97228.53;;;4.56;50.10
39729;BME280;25402;42.004;23.088;2022-12-07T04:15:38;97360.59;;;5.53;50.09
39729;BME280;25402;42.004;23.088;2022-12-07T04:18:05;97290.47;;;5.22;49.75
39729;BME280;25402;42.004;23.088;2022-12-07T04:20:34;97265.72;;;5.28;49.67
39729;BME280;25402;42.004;23.088;2022-12-07T04:23:04;97269.97;;;5.39;48.87
39729;BME280;25402;42.004;23.088;2022-12-07T04:25:32;97254.16;;;5.28;47.80
39729;BME280;25402;42.004;23.088;2022-12-07T04:28:00;97241.91;;;5.25;47.85
39729;BME280;25402;42.004;23.088;2022-12-07T04:30:28;97354.47;;;5.95;47.16
39729;BME280;25402;42.004;23.088;2022-12-07T04:32:55;97288.63;;;5.48;46.88
39729;BME280;25402;42.004;23.088;2022-12-07T04:35:22;97241.72;;;5.27;47.49
39729;BME280;25402;42.004;23.088;2022-12-07T04:38:04;97283.13;;;5.58;47.33
39729;BME280;25402;42.004;23.088;2022-12-07T04:40:34;97352.50;;;6.05;48.16
39729;BME280;25402;42.004;23.088;2022-12-07T04:43:31;97275.78;;;5.60;47.16
39729;BME280;25402;42.004;23.088;2022-12-07T04:45:59;97260.91;;;5.40;50.83
39729;BME280;25402;42.004;23.088;2022-12-07T04:48:30;97244.75;;;6.08;51.99
39729;BME280;25402;42.004;23.088;2022-12-07T04:51:00;97292.19;;;7.22;49.49
39729;BME280;25402;42.004;23.088;2022-12-07T04:53:33;97243.25;;;7.66;47.70
39729;BME280;25402;42.004;23.088;2022-12-07T04:56:03;97258.34;;;8.06;46.94
39729;BME280;25402;42.004;23.088;2022-12-07T04:58:39;97353.66;;;8.75;47.09
39729;BME280;25402;42.004;23.088;2022-12-07T05:01:27;97256.03;;;8.57;45.29
39729;BME280;25402;42.004;23.088;2022-12-07T05:04:06;97287.25;;;8.74;42.17
39729;BME280;25402;42.004;23.088;2022-12-07T05:06:37;97304.34;;;8.36;41.09
39729;BME280;25402;42.004;23.088;2022-12-07T05:09:13;97356.69;;;8.18;40.91
39729;BME280;25402;42.004;23.088;2022-12-07T05:11:41;97277.38;;;7.18;40.59
39729;BME280;25402;42.004;23.088;2022-12-07T05:14:12;97423.97;;;7.71;41.07
39729;BME280;25402;42.004;23.088;2022-12-07T05:16:51;97319.38;;;6.63;42.04
39729;BME280;25402;42.004;23.088;2022-12-07T05:19:23;97241.53;;;5.96;42.47
39729;BME280;25402;42.004;23.088;2022-12-07T05:22:05;97288.88;;;6.05;42.97
39729;BME280;25402;42.004;23.088;2022-12-07T05:24:41;97325.09;;;6.01;43.39
39729;BME280;25402;42.004;23.088;2022-12-07T05:27:13;97239.50;;;5.14;44.34
39729;BME280;25402;42.004;23.088;2022-12-07T05:29:44;97264.81;;;5.19;44.53
39729;BME280;25402;42.004;23.088;2022-12-07T05:32:14;97229.59;;;4.89;44.99
39729;BME280;25402;42.004;23.088;2022-12-07T05:34:48;97355.81;;;5.65;44.93
39729;BME280;25402;42.004;23.088;2022-12-07T05:37:22;97369.94;;;5.75;45.78
39729;BME280;25402;42.004;23.088;2022-12-07T05:39:57;97283.81;;;5.26;46.50
39729;BME280;25402;42.004;23.088;2022-12-07T05:42:52;97269.88;;;5.23;45.69
39729;BME280;25402;42.004;23.088;2022-12-07T05:45:28;97289.75;;;5.12;45.16
39729;BME280;25402;42.004;23.088;2022-12-07T05:48:09;97286.38;;;5.10;45.31
39729;BME280;25402;42.004;23.088;2022-12-07T05:50:42;97350.69;;;5.53;45.17
39729;BME280;25402;42.004;23.088;2022-12-07T05:53:11;97262.88;;;4.78;45.17
39729;BME280;25402;42.004;23.088;2022-12-07T05:55:45;97315.25;;;5.16;45.04
39729;BME280;25402;42.004;23.088;2022-12-07T05:58:24;97316.25;;;5.15;44.85
39729;BME280;25402;42.004;23.088;2022-12-07T06:01:09;97316.88;;;5.09;44.92
39729;BME280;25402;42.004;23.088;2022-12-07T06:04:04;97238.22;;;4.57;45.36
39729;BME280;25402;42.004;23.088;2022-12-07T06:06:42;97305.34;;;4.91;45.39
39729;BME280;25402;42.004;23.088;2022-12-07T06:09:32;97229.53;;;4.37;45.40
39729;BME280;25402;42.004;23.088;2022-12-07T06:12:12;97414.16;;;5.63;45.54
39729;BME280;25402;42.004;23.088;2022-12-07T06:14:57;97286.56;;;4.65;45.85
39729;BME280;25402;42.004;23.088;2022-12-07T06:17:30;97356.09;;;5.10;46.00
39729;BME280;25402;42.004;23.088;2022-12-07T06:19:57;97321.69;;;4.79;46.09
39729;BME280;25402;42.004;23.088;2022-12-07T06:22:25;97325.81;;;4.56;46.96
39729;BME280;25402;42.004;23.088;2022-12-07T06:24:55;97248.34;;;4.27;46.59
39729;BME280;25402;42.004;23.088;2022-12-07T06:27:24;97241.94;;;4.02;47.01
39729;BME280;25402;42.004;23.088;2022-12-07T06:29:55;97264.94;;;4.13;47.15
39729;BME280;25402;42.004;23.088;2022-12-07T06:32:33;97271.25;;;4.22;47.27
39729;BME280;25402;42.004;23.088;2022-12-07T06:35:02;97396.28;;;4.84;47.59
39729;BME280;25402;42.004;23.088;2022-12-07T06:37:58;97279.72;;;3.99;47.98
39729;BME280;25402;42.004;23.088;2022-12-07T06:40:31;97345.06;;;4.42;48.15
39729;BME280;25402;42.004;23.088;2022-12-07T06:43:02;97340.09;;;4.29;48.37
39729;BME280;25402;42.004;23.088;2022-12-07T06:45:36;97322.59;;;4.35;48.11
39729;BME280;25402;42.004;23.088;2022-12-07T06:48:11;97362.44;;;4.65;48.01
39729;BME280;25402;42.004;23.088;2022-12-07T06:50:53;97286.63;;;4.20;48.09
39729;BME280;25402;42.004;23.088;2022-12-07T06:53:59;97258.41;;;4.07;47.91
39729;BME280;25402;42.004;23.088;2022-12-07T06:56:17;97381.41;;;4.90;47.76
39729;BME280;25402;42.004;23.088;2022-12-07T06:58:51;97292.69;;;4.39;48.19
39729;BME280;25402;42.004;23.088;2022-12-07T07:01:22;97392.94;;;5.08;48.18
39729;BME280;25402;42.004;23.088;2022-12-07T07:03:50;97267.41;;;4.42;48.19
39729;BME280;25402;42.004;23.088;2022-12-07T07:06:18;97276.06;;;4.71;47.86
39729;BME280;25402;42.004;23.088;2022-12-07T07:08:56;97354.97;;;5.38;47.61
39729;BME280;25402;42.004;23.088;2022-12-07T07:11:33;97385.63;;;5.62;47.25
39729;BME280;25402;42.004;23.088;2022-12-07T07:14:02;97295.34;;;5.18;47.01
39729;BME280;25402;42.004;23.088;2022-12-07T07:16:32;97314.09;;;5.44;46.61
39729;BME280;25402;42.004;23.088;2022-12-07T07:19:01;97369.91;;;5.93;46.69
39729;BME280;25402;42.004;23.088;2022-12-07T07:21:30;97255.84;;;5.37;46.28
39729;BME280;25402;42.004;23.088;2022-12-07T07:24:01;97267.19;;;5.57;46.10
39729;BME280;25402;42.004;23.088;2022-12-07T07:26:30;97329.16;;;6.05;45.72
39729;BME280;25402;42.004;23.088;2022-12-07T07:28:58;97241.19;;;5.57;45.64
39729;BME280;25402;42.004;23.088;2022-12-07T07:31:30;97375.44;;;6.49;45.87
39729;BME280;25402;42.004;23.088;2022-12-07T07:34:13;97417.22;;;6.86;45.86
39729;BME280;25402;42.004;23.088;2022-12-07T07:37:01;97284.38;;;6.22;45.59
39729;BME280;25402;42.004;23.088;2022-12-07T07:39:34;97233.50;;;6.12;45.32
39729;BME280;25402;42.004;23.088;2022-12-07T07:42:07;97255.69;;;6.47;44.82
39729;BME280;25402;42.004;23.088;2022-12-07T07:44:35;97332.53;;;7.06;44.72
39729;BME280;25402;42.004;23.088;2022-12-07T07:47:06;97356.22;;;7.35;44.16
39729;BME280;25402;42.004;23.088;2022-12-07T07:49:47;97363.22;;;7.60;44.12
39729;BME280;25402;42.004;23.088;2022-12-07T07:52:17;97382.03;;;7.85;43.61
39729;BME280;25402;42.004;23.088;2022-12-07T07:54:47;97290.41;;;7.46;43.32
39729;BME280;25402;42.004;23.088;2022-12-07T07:57:42;97268.22;;;7.44;42.58
39729;BME280;25402;42.004;23.088;2022-12-07T08:00:19;97263.72;;;7.36;42.93
39729;BME280;25402;42.004;23.088;2022-12-07T08:03:06;97276.47;;;7.50;42.47
39729;BME280;25402;42.004;23.088;2022-12-07T08:05:50;97304.28;;;7.74;42.51
39729;BME280;25402;42.004;23.088;2022-12-07T08:08:31;97319.13;;;8.09;43.21
39729;BME280;25402;42.004;23.088;2022-12-07T08:11:27;97268.00;;;8.01;42.76
39729;BME280;25402;42.004;23.088;2022-12-07T08:14:09;97257.69;;;8.04;42.12
39729;BME280;25402;42.004;23.088;2022-12-07T08:16:58;97285.81;;;8.41;42.08
39729;BME280;25402;42.004;23.088;2022-12-07T08:19:41;97293.53;;;8.66;41.55
39729;BME280;25402;42.004;23.088;2022-12-07T08:22:08;97271.13;;;8.66;41.51
39729;BME280;25402;42.004;23.088;2022-12-07T08:24:38;97254.41;;;8.71;41.16
39729;BME280;25402;42.004;23.088;2022-12-07T08:27:05;97260.13;;;8.90;41.12
39729;BME280;25402;42.004;23.088;2022-12-07T08:29:32;97347.44;;;9.58;40.91
39729;BME280;25402;42.004;23.088;2022-12-07T08:32:00;97272.75;;;9.13;40.85
39729;BME280;25402;42.004;23.088;2022-12-07T08:34:31;97268.69;;;9.17;40.78
39729;BME280;25402;42.004;23.088;2022-12-07T08:37:03;97309.03;;;9.48;40.52
39729;BME280;25402;42.004;23.088;2022-12-07T08:39:38;97263.13;;;9.33;40.01
39729;BME280;25402;42.004;23.088;2022-12-07T08:42:30;97301.50;;;9.87;39.56
39729;BME280;25402;42.004;23.088;2022-12-07T08:45:10;97254.47;;;9.67;39.78
39729;BME280;25402;42.004;23.088;2022-12-07T08:47:42;97249.41;;;9.79;39.34
39729;BME280;25402;42.004;23.088;2022-12-07T08:50:20;97246.31;;;9.96;39.25
39729;BME280;25402;42.004;23.088;2022-12-07T08:53:07;97243.81;;;10.10;38.81
39729;BME280;25402;42.004;23.088;2022-12-07T08:55:37;97296.84;;;10.47;38.48
39729;BME280;25402;42.004;23.088;2022-12-07T08:58:09;97241.97;;;10.31;38.34
39729;BME280;25402;42.004;23.088;2022-12-07T09:00:44;97257.63;;;10.57;37.93
39729;BME280;25402;42.004;23.088;2022-12-07T09:03:13;97346.56;;;11.03;38.10
39729;BME280;25402;42.004;23.088;2022-12-07T09:05:42;97268.72;;;10.62;37.86
39729;BME280;25402;42.004;23.088;2022-12-07T09:08:12;97237.94;;;10.63;37.21
39729;BME280;25402;42.004;23.088;2022-12-07T09:10:43;97317.13;;;11.15;37.32
39729;BME280;25402;42.004;23.088;2022-12-07T09:13:11;97245.84;;;10.65;37.47
39729;BME280;25402;42.004;23.088;2022-12-07T09:15:41;97302.84;;;10.99;37.61
39729;BME280;25402;42.004;23.088;2022-12-07T09:18:16;97349.84;;;11.41;37.50
39729;BME280;25402;42.004;23.088;2022-12-07T09:20:52;97222.28;;;10.80;36.99
39729;BME280;25402;42.004;23.088;2022-12-07T09:23:22;97306.78;;;11.25;37.16
39729;BME280;25402;42.004;23.088;2022-12-07T09:26:06;97267.25;;;10.81;37.02
39729;BME280;25402;42.004;23.088;2022-12-07T09:28:56;97247.47;;;10.59;37.47
39729;BME280;25402;42.004;23.088;2022-12-07T09:31:23;97283.03;;;10.77;37.19
39729;BME280;25402;42.004;23.088;2022-12-07T09:33:54;97274.28;;;10.39;37.86
39729;BME280;25402;42.004;23.088;2022-12-07T09:36:34;97166.19;;;9.67;38.25
39729;BME280;25402;42.004;23.088;2022-12-07T09:39:03;97302.84;;;10.63;37.82
39729;BME280;25402;42.004;23.088;2022-12-07T09:41:36;97200.13;;;9.91;37.94
39729;BME280;25402;42.004;23.088;2022-12-07T09:44:27;97192.66;;;9.57;38.49
39729;BME280;25402;42.004;23.088;2022-12-07T09:47:09;97248.59;;;9.49;39.35
39729;BME280;25402;42.004;23.088;2022-12-07T09:49:39;97236.66;;;9.14;39.79
39729;BME280;25402;42.004;23.088;2022-12-07T09:52:19;97215.84;;;9.37;39.82
39729;BME280;25402;42.004;23.088;2022-12-07T09:55:44;97174.69;;;9.20;39.50
39729;BME280;25402;42.004;23.088;2022-12-07T09:58:19;97314.16;;;10.01;39.48
39729;BME280;25402;42.004;23.088;2022-12-07T10:00:47;97268.16;;;9.65;39.66
39729;BME280;25402;42.004;23.088;2022-12-07T10:03:34;97257.28;;;9.73;39.71
39729;BME280;25402;42.004;23.088;2022-12-07T10:06:13;97155.91;;;9.27;39.32
39729;BME280;25402;42.004;23.088;2022-12-07T10:08:45;97219.53;;;9.65;39.40
39729;BME280;25402;42.004;23.088;2022-12-07T10:11:26;97174.00;;;9.62;39.07
39729;BME280;25402;42.004;23.088;2022-12-07T10:13:55;97232.47;;;9.85;39.01
39729;BME280;25402;42.004;23.088;2022-12-07T10:16:40;97253.25;;;9.84;39.36
39729;BME280;25402;42.004;23.088;2022-12-07T10:19:25;97176.66;;;9.41;39.47
39729;BME280;25402;42.004;23.088;2022-12-07T10:22:04;97246.06;;;9.77;39.54
39729;BME280;25402;42.004;23.088;2022-12-07T10:24:40;97171.16;;;9.20;39.74
39729;BME280;25402;42.004;23.088;2022-12-07T10:27:21;97252.72;;;9.59;39.88
39729;BME280;25402;42.004;23.088;2022-12-07T10:29:54;97153.75;;;9.22;42.50
39729;BME280;25402;42.004;23.088;2022-12-07T10:32:31;97134.50;;;9.61;39.61
39729;BME280;25402;42.004;23.088;2022-12-07T10:35:23;97167.03;;;10.47;39.48
39729;BME280;25402;42.004;23.088;2022-12-07T10:37:57;97173.19;;;10.83;38.68
39729;BME280;25402;42.004;23.088;2022-12-07T10:40:41;97188.09;;;11.28;39.20
39729;BME280;25402;42.004;23.088;2022-12-07T10:43:22;97217.63;;;11.99;38.20
39729;BME280;25402;42.004;23.088;2022-12-07T10:46:18;97193.97;;;11.79;36.18
39729;BME280;25402;42.004;23.088;2022-12-07T10:49:01;97161.41;;;11.25;36.62
39729;BME280;25402;42.004;23.088;2022-12-07T10:51:37;97186.09;;;11.43;37.20
39729;BME280;25402;42.004;23.088;2022-12-07T10:54:11;97154.69;;;11.15;35.87
39729;BME280;25402;42.004;23.088;2022-12-07T10:57:08;97141.56;;;10.90;36.96
39729;BME280;25402;42.004;23.088;2022-12-07T11:00:01;97183.84;;;11.19;36.59
39729;BME280;25402;42.004;23.088;2022-12-07T11:02:42;97183.25;;;11.17;36.62
39729;BME280;25402;42.004;23.088;2022-12-07T11:05:20;97129.28;;;11.16;36.76
39729;BME280;25402;42.004;23.088;2022-12-07T11:08:00;97149.03;;;11.09;37.03
39729;BME280;25402;42.004;23.088;2022-12-07T11:10:37;97210.78;;;11.62;36.21
39729;BME280;25402;42.004;23.088;2022-12-07T11:13:22;97171.91;;;11.41;36.23
39729;BME280;25402;42.004;23.088;2022-12-07T11:16:14;97136.34;;;10.89;36.28
39729;BME280;25402;42.004;23.088;2022-12-07T11:18:51;97236.03;;;11.34;36.91
39729;BME280;25402;42.004;23.088;2022-12-07T11:21:27;97113.06;;;10.60;37.48
39729;BME280;25402;42.004;23.088;2022-12-07T11:24:06;97153.78;;;11.07;38.78
39729;BME280;25402;42.004;23.088;2022-12-07T11:27:03;97123.78;;;11.02;37.42
39729;BME280;25402;42.004;23.088;2022-12-07T11:29:49;97119.78;;;10.98;36.75
39729;BME280;25402;42.004;23.088;2022-12-07T11:32:25;97146.75;;;11.54;39.29
39729;BME280;25402;42.004;23.088;2022-12-07T11:35:08;97182.19;;;11.94;37.31
39729;BME280;25402;42.004;23.088;2022-12-07T11:37:39;97095.25;;;11.41;37.54
39729;BME280;25402;42.004;23.088;2022-12-07T11:40:22;97135.75;;;11.69;36.12
39729;BME280;25402;42.004;23.088;2022-12-07T11:42:58;97160.28;;;11.48;36.41
39729;BME280;25402;42.004;23.088;2022-12-07T11:45:31;97095.31;;;11.13;36.19
39729;BME280;25402;42.004;23.088;2022-12-07T11:48:02;97099.22;;;11.04;36.41
39729;BME280;25402;42.004;23.088;2022-12-07T11:50:37;97105.03;;;10.73;36.80
39729;BME280;25402;42.004;23.088;2022-12-07T11:53:14;97146.00;;;10.98;37.18
39729;BME280;25402;42.004;23.088;2022-12-07T11:55:49;97139.66;;;11.12;37.21
39729;BME280;25402;42.004;23.088;2022-12-07T11:58:26;97114.91;;;10.87;37.22
39729;BME280;25402;42.004;23.088;2022-12-07T12:01:13;97113.63;;;11.11;37.13
39729;BME280;25402;42.004;23.088;2022-12-07T12:03:46;97060.25;;;10.98;36.84
39729;BME280;25402;42.004;23.088;2022-12-07T12:06:14;97114.84;;;11.43;36.80
39729;BME280;25402;42.004;23.088;2022-12-07T12:08:56;97184.94;;;12.07;36.54
39729;BME280;25402;42.004;23.088;2022-12-07T12:11:43;97144.38;;;11.86;36.19
39729;BME280;25402;42.004;23.088;2022-12-07T12:14:36;97186.00;;;12.19;36.01
39729;BME280;25402;42.004;23.088;2022-12-07T12:17:43;97129.66;;;12.08;35.77
39729;BME280;25402;42.004;23.088;2022-12-07T12:20:25;97109.81;;;12.01;35.62
39729;BME280;25402;42.004;23.088;2022-12-07T12:23:05;97141.34;;;12.28;35.21
39729;BME280;25402;42.004;23.088;2022-12-07T12:25:38;97130.13;;;12.25;35.05
39729;BME280;25402;42.004;23.088;2022-12-07T12:28:20;97114.66;;;12.32;35.03
39729;BME280;25402;42.004;23.088;2022-12-07T12:31:07;97028.09;;;11.91;34.84
39729;BME280;25402;42.004;23.088;2022-12-07T12:33:37;97130.94;;;12.45;35.06
39729;BME280;25402;42.004;23.088;2022-12-07T12:36:26;97107.16;;;12.54;34.86
39729;BME280;25402;42.004;23.088;2022-12-07T12:39:11;97130.97;;;12.84;34.56
39729;BME280;25402;42.004;23.088;2022-12-07T12:42:05;97069.19;;;12.40;34.63
39729;BME280;25402;42.004;23.088;2022-12-07T12:45:19;97036.03;;;12.25;34.57
39729;BME280;25402;42.004;23.088;2022-12-07T12:48:07;97056.88;;;12.05;34.66
39729;BME280;25402;42.004;23.088;2022-12-07T12:51:40;97119.06;;;12.26;34.73
39729;BME280;25402;42.004;23.088;2022-12-07T12:54:14;97081.25;;;11.92;35.23
39729;BME280;25402;42.004;23.088;2022-12-07T12:56:46;96998.97;;;11.38;35.10
39729;BME280;25402;42.004;23.088;2022-12-07T12:59:28;97009.38;;;11.35;35.32
39729;BME280;25402;42.004;23.088;2022-12-07T13:02:16;97095.00;;;11.97;35.42
39729;BME280;25402;42.004;23.088;2022-12-07T13:05:21;96982.09;;;11.30;35.33
39729;BME280;25402;42.004;23.088;2022-12-07T13:08:14;97051.59;;;11.77;35.22
39729;BME280;25402;42.004;23.088;2022-12-07T13:10:50;97053.25;;;11.85;35.33
39729;BME280;25402;42.004;23.088;2022-12-07T13:13:34;97018.22;;;11.83;35.45
39729;BME280;25402;42.004;23.088;2022-12-07T13:16:37;97113.41;;;12.34;35.38
39729;BME280;25402;42.004;23.088;2022-12-07T13:22:46;97109.66;;;12.29;37.23
39729;BME280;25402;42.004;23.088;2022-12-07T13:25:26;96987.81;;;11.74;36.64
39729;BME280;25402;42.004;23.088;2022-12-07T13:28:01;97088.81;;;12.42;37.93
39729;BME280;25402;42.004;23.088;2022-12-07T13:30:29;97115.09;;;12.95;38.54
39729;BME280;25402;42.004;23.088;2022-12-07T13:32:59;97034.13;;;12.45;37.76
39729;BME280;25402;42.004;23.088;2022-12-07T13:35:33;97085.28;;;12.75;38.08
39729;BME280;25402;42.004;23.088;2022-12-07T13:38:04;97047.50;;;12.73;38.55
39729;BME280;25402;42.004;23.088;2022-12-07T13:40:34;97093.75;;;13.11;38.25
39729;BME280;25402;42.004;23.088;2022-12-07T13:43:14;97111.63;;;13.39;37.72
39729;BME280;25402;42.004;23.088;2022-12-07T13:45:42;97092.22;;;13.29;37.21
39729;BME280;25402;42.004;23.088;2022-12-07T13:48:22;97106.63;;;13.36;37.04